Time,TemperatureF,DewpointF,PressureIn,WindDirection,WindDirectionDegrees,WindSpeedMPH,WindSpeedGustMPH,Humidity,HourlyPrecipIn,Conditions,Clouds,dailyrainin,SoftwareType,DateUTC
2013-01-17 00:04:00,63.0,62.0,30.03,North,0,0.0,0.0,96,99.99,,,-99.99,,2013-01-17 05:04:00,
2013-01-17 00:12:00,63.0,62.0,30.03,North,0,0.0,0.0,96,99.99,,,-99.99,,2013-01-17 05:12:00,
2013-01-17 00:22:00,62.0,61.0,30.04,SW,219,1.0,2.0,96,99.99,,,-99.99,,2013-01-17 05:22:00,
2013-01-17 00:33:00,62.0,61.0,30.03,SSW,197,0.0,1.0,97,99.99,,,-99.99,,2013-01-17 05:33:00,
2013-01-17 00:42:00,62.0,61.0,30.03,SSW,197,0.0,1.0,97,99.99,,,-99.99,,2013-01-17 05:42:00,
2013-01-17 00:53:00,62.0,61.0,30.03,North,0,0.0,0.0,97,99.99,,,-99.99,,2013-01-17 05:53:00,
2013-01-17 01:02:00,62.0,61.0,30.03,North,0,0.0,0.0,98,99.99,,,-99.99,,2013-01-17 06:02:00,
2013-01-17 01:12:00,62.0,61.0,30.03,North,0,0.0,0.0,98,99.99,,,-99.99,,2013-01-17 06:12:00,
2013-01-17 01:22:00,62.0,61.0,30.03,North,0,0.0,0.0,98,99.99,,,-99.99,,2013-01-17 06:22:00,
2013-01-17 01:32:00,62.0,61.0,30.04,SW,214,2.0,2.0,98,99.99,,,-99.99,,2013-01-17 06:32:00,
2013-01-17 01:42:00,62.0,61.0,30.04,SW,214,2.0,2.0,98,99.99,,,-99.99,,2013-01-17 06:42:00,
2013-01-17 01:53:00,62.0,61.0,30.03,WSW,240,1.0,1.0,98,99.99,,,-99.99,,2013-01-17 06:53:00,
2013-01-17 02:02:00,62.0,61.0,30.03,North,0,0.0,0.0,98,99.99,,,-99.99,,2013-01-17 07:02:00,
2013-01-17 02:12:00,62.0,61.0,30.03,North,0,0.0,0.0,98,99.99,,,-99.99,,2013-01-17 07:12:00,
2013-01-17 02:22:00,62.0,62.0,30.03,North,0,0.0,0.0,99,99.99,,,-99.99,,2013-01-17 07:22:00,
2013-01-17 02:32:00,62.0,62.0,30.03,North,0,0.0,0.0,99,99.99,,,-99.99,,2013-01-17 07:32:00,
2013-01-17 02:42:00,62.0,62.0,30.03,North,0,0.0,0.0,99,99.99,,,-99.99,,2013-01-17 07:42:00,
2013-01-17 02:52:00,62.0,62.0,30.03,North,0,0.0,0.0,99,99.99,,,-99.99,,2013-01-17 07:52:00,
2013-01-17 03:02:00,61.0,61.0,30.02,North,0,0.0,0.0,99,99.99,,,-99.99,,2013-01-17 08:02:00,
2013-01-17 03:12:00,61.0,61.0,30.02,North,0,0.0,0.0,99,99.99,,,-99.99,,2013-01-17 08:12:00,
2013-01-17 03:22:00,61.0,61.0,30.02,North,0,0.0,0.0,99,99.99,,,-99.99,,2013-01-17 08:22:00,
2013-01-17 03:32:00,61.0,61.0,30.03,North,0,0.0,0.0,99,99.99,,,-99.99,,2013-01-17 08:32:00,
2013-01-17 03:43:00,61.0,61.0,30.03,North,0,0.0,0.0,99,99.99,,,-99.99,,2013-01-17 08:43:00,
2013-01-17 03:52:00,61.0,61.0,30.03,SSE,163,2.0,3.0,99,99.99,,,-99.99,,2013-01-17 08:52:00,
2013-01-17 04:03:00,61.0,61.0,30.03,SSW,201,1.0,2.0,100,99.99,,,-99.99,,2013-01-17 09:03:00,
2013-01-17 04:12:00,61.0,61.0,30.03,SSW,201,1.0,2.0,100,99.99,,,-99.99,,2013-01-17 09:12:00,
2013-01-17 04:22:00,61.0,61.0,30.02,SW,224,1.0,2.0,100,99.99,,,-99.99,,2013-01-17 09:22:00,
2013-01-17 04:32:00,61.0,61.0,30.02,SW,225,2.0,2.0,100,99.99,,,-99.99,,2013-01-17 09:32:00,
2013-01-17 04:42:00,61.0,61.0,30.02,SW,225,2.0,2.0,100,99.99,,,-99.99,,2013-01-17 09:42:00,
2013-01-17 04:52:00,61.0,61.0,30.03,WSW,253,0.0,1.0,100,99.99,,,-99.99,,2013-01-17 09:52:00,
2013-01-17 05:02:00,60.0,60.0,30.02,SSW,208,0.0,2.0,100,99.99,,,-99.99,,2013-01-17 10:02:00,
2013-01-17 05:12:00,60.0,60.0,30.02,SSW,208,0.0,2.0,100,99.99,,,-99.99,,2013-01-17 10:12:00,
2013-01-17 05:22:00,60.0,60.0,30.01,SSW,205,2.0,2.0,100,99.99,,,-99.99,,2013-01-17 10:22:00,
2013-01-17 05:32:00,60.0,60.0,30.01,SSW,204,2.0,3.0,100,99.99,,,-99.99,,2013-01-17 10:32:00,
2013-01-17 05:42:00,60.0,60.0,30.01,SSW,204,2.0,3.0,100,99.99,,,-99.99,,2013-01-17 10:42:00,
2013-01-17 05:53:00,60.0,60.0,30.02,North,0,0.0,0.0,100,99.99,,,-99.99,,2013-01-17 10:53:00,
2013-01-17 06:02:00,60.0,60.0,30.02,SSW,200,1.0,2.0,100,99.99,,,-99.99,,2013-01-17 11:02:00,
2013-01-17 06:12:00,60.0,60.0,30.02,SSW,200,1.0,2.0,100,99.99,,,-99.99,,2013-01-17 11:12:00,
2013-01-17 06:22:00,60.0,60.0,30.02,SSE,163,1.0,2.0,100,99.99,,,-99.99,,2013-01-17 11:22:00,
2013-01-17 06:33:00,60.0,60.0,30.02,North,0,0.0,0.0,100,99.99,,,-99.99,,2013-01-17 11:33:00,
2013-01-17 06:43:00,60.0,60.0,30.02,North,0,0.0,0.0,100,99.99,,,-99.99,,2013-01-17 11:43:00,
2013-01-17 06:53:00,60.0,60.0,30.03,South,183,2.0,5.0,100,99.99,,,-99.99,,2013-01-17 11:53:00,
2013-01-17 07:02:00,61.0,61.0,30.03,South,177,4.0,6.0,100,99.99,,,-99.99,,2013-01-17 12:02:00,
2013-01-17 07:12:00,61.0,61.0,30.03,South,177,4.0,6.0,100,99.99,,,-99.99,,2013-01-17 12:12:00,
2013-01-17 07:23:00,61.0,61.0,30.03,South,174,3.0,5.0,100,99.99,,,-99.99,,2013-01-17 12:23:00,
2013-01-17 07:33:00,61.0,61.0,30.03,SSE,148,2.0,4.0,100,99.99,,,-99.99,,2013-01-17 12:33:00,
2013-01-17 07:43:00,61.0,61.0,30.03,SSE,148,2.0,4.0,100,99.99,,,-99.99,,2013-01-17 12:43:00,
2013-01-17 07:53:00,62.0,62.0,30.03,South,186,4.0,5.0,100,99.99,,,-99.99,,2013-01-17 12:53:00,
2013-01-17 08:03:00,63.0,63.0,30.04,South,170,4.0,6.0,100,99.99,,,-99.99,,2013-01-17 13:03:00,
2013-01-17 08:12:00,63.0,63.0,30.04,South,170,4.0,6.0,100,99.99,,,-99.99,,2013-01-17 13:12:00,
2013-01-17 08:23:00,64.0,64.0,30.03,South,173,5.0,7.0,100,99.99,,,-99.99,,2013-01-17 13:23:00,
2013-01-17 08:33:00,65.0,65.0,30.04,South,180,5.0,7.0,100,99.99,,,-99.99,,2013-01-17 13:33:00,
2013-01-17 08:43:00,66.0,66.0,30.04,South,177,4.0,7.0,100,99.99,,,-99.99,,2013-01-17 13:43:00,
2013-01-17 08:53:00,66.0,66.0,30.04,South,177,4.0,7.0,100,99.99,,,-99.99,,2013-01-17 13:53:00,
2013-01-17 09:03:00,68.0,68.0,30.04,South,188,5.0,8.0,100,99.99,,,-99.99,,2013-01-17 14:03:00,
2013-01-17 09:12:00,68.0,68.0,30.04,South,188,5.0,8.0,100,99.99,,,-99.99,,2013-01-17 14:12:00,
2013-01-17 09:23:00,69.0,69.0,30.06,South,188,6.0,9.0,100,99.99,,,-99.99,,2013-01-17 14:23:00,
2013-01-17 09:33:00,70.0,69.0,30.05,South,187,5.0,9.0,97,99.99,,,-99.99,,2013-01-17 14:33:00,
2013-01-17 09:43:00,70.0,69.0,30.05,South,187,5.0,9.0,97,99.99,,,-99.99,,2013-01-17 14:43:00,
2013-01-17 09:53:00,72.0,70.0,30.05,South,179,7.0,10.0,95,99.99,,,-99.99,,2013-01-17 14:53:00,
2013-01-17 10:03:00,72.0,70.0,30.05,South,179,7.0,10.0,95,99.99,,,-99.99,,2013-01-17 15:03:00,
2013-01-17 10:12:00,72.0,70.0,30.05,South,179,7.0,10.0,95,99.99,,,-99.99,,2013-01-17 15:12:00,
2013-01-17 10:23:00,74.0,71.0,30.05,SSW,212,6.0,12.0,90,99.99,,,-99.99,,2013-01-17 15:23:00,
2013-01-17 10:33:00,75.0,70.0,30.05,SW,225,8.0,13.0,85,99.99,,,-99.99,,2013-01-17 15:33:00,
2013-01-17 10:43:00,75.0,70.0,30.05,SW,225,8.0,13.0,85,99.99,,,-99.99,,2013-01-17 15:43:00,
2013-01-17 10:53:00,76.0,70.0,30.05,West,260,8.0,15.0,83,99.99,,,-99.99,,2013-01-17 15:53:00,
2013-01-17 11:02:00,76.0,70.0,30.04,SW,226,8.0,14.0,82,99.99,,,-99.99,,2013-01-17 16:02:00,
2013-01-17 11:12:00,76.0,70.0,30.04,SW,226,8.0,14.0,82,99.99,,,-99.99,,2013-01-17 16:12:00,
2013-01-17 11:23:00,77.0,68.0,30.03,SW,221,10.0,16.0,75,99.99,,,-99.99,,2013-01-17 16:23:00,
2013-01-17 11:33:00,78.0,68.0,30.02,SW,215,9.0,15.0,72,99.99,,,-99.99,,2013-01-17 16:33:00,
2013-01-17 11:43:00,78.0,68.0,30.02,SW,215,9.0,15.0,72,99.99,,,-99.99,,2013-01-17 16:43:00,
2013-01-17 11:53:00,78.0,68.0,30.02,SW,215,9.0,15.0,72,99.99,,,-99.99,,2013-01-17 16:53:00,
2013-01-17 12:03:00,80.0,66.0,30.01,SW,235,8.0,15.0,63,99.99,,,-99.99,,2013-01-17 17:03:00,
2013-01-17 12:13:00,80.0,66.0,30.01,SW,235,8.0,15.0,63,99.99,,,-99.99,,2013-01-17 17:13:00,
2013-01-17 12:23:00,80.0,67.0,30.01,WSW,246,8.0,12.0,64,99.99,,,-99.99,,2013-01-17 17:23:00,
2013-01-17 12:33:00,79.0,65.0,30.00,West,264,8.0,16.0,62,99.99,,,-99.99,,2013-01-17 17:33:00,
2013-01-17 12:43:00,79.0,65.0,30.00,West,264,8.0,16.0,62,99.99,,,-99.99,,2013-01-17 17:43:00,
2013-01-17 12:53:00,79.0,67.0,29.99,WSW,249,10.0,17.0,67,99.99,,,-99.99,,2013-01-17 17:53:00,
2013-01-17 13:02:00,74.0,67.0,29.98,West,278,11.0,21.0,79,99.99,,,-99.99,,2013-01-17 18:02:00,
2013-01-17 13:04:00,79.0,67.0,29.99,WSW,249,10.0,17.0,67,99.99,,,-99.99,,2013-01-17 18:04:00,
2013-01-17 13:12:00,79.0,67.0,29.99,WSW,249,10.0,17.0,67,99.99,,,-99.99,,2013-01-17 18:12:00,
2013-01-17 13:23:00,74.0,67.0,29.98,West,278,11.0,21.0,79,99.99,,,-99.99,,2013-01-17 18:23:00,
2013-01-17 13:34:00,74.0,67.0,29.98,West,278,11.0,21.0,79,99.99,,,-99.99,,2013-01-17 18:34:00,
2013-01-17 13:44:00,74.0,67.0,29.98,West,278,11.0,21.0,79,99.99,,,-99.99,,2013-01-17 18:44:00,
2013-01-17 13:53:00,74.0,67.0,29.98,West,278,11.0,21.0,79,99.99,,,-99.99,,2013-01-17 18:53:00,
2013-01-17 14:22:00,71.0,66.0,29.98,West,280,10.0,19.0,85,99.99,,,-99.99,,2013-01-17 19:22:00,
2013-01-17 14:23:00,73.0,66.0,29.98,West,276,9.0,22.0,78,99.99,,,-99.99,,2013-01-17 19:23:00,
2013-01-17 14:33:00,73.0,66.0,29.98,WNW,287,11.0,20.0,80,99.99,,,-99.99,,2013-01-17 19:33:00,
2013-01-17 14:43:00,73.0,66.0,29.98,WNW,287,11.0,20.0,80,99.99,,,-99.99,,2013-01-17 19:43:00,
2013-01-17 14:53:00,71.0,66.0,29.98,West,280,10.0,19.0,85,99.99,,,-99.99,,2013-01-17 19:53:00,
2013-01-17 15:03:00,71.0,66.0,29.98,West,280,10.0,19.0,85,99.99,,,-99.99,,2013-01-17 20:03:00,
2013-01-17 15:13:00,71.0,66.0,29.98,West,280,10.0,19.0,85,99.99,,,-99.99,,2013-01-17 20:13:00,
2013-01-17 16:03:00,63.0,61.0,30.02,WNW,287,13.0,26.0,92,99.99,,,-99.99,,2013-01-17 21:03:00,
2013-01-17 16:13:00,63.0,61.0,30.02,WNW,287,13.0,26.0,92,99.99,,,-99.99,,2013-01-17 21:13:00,
2013-01-17 16:23:00,63.0,61.0,30.02,WNW,287,13.0,26.0,92,99.99,,,-99.99,,2013-01-17 21:23:00,
2013-01-17 16:34:00,63.0,61.0,30.02,WNW,287,13.0,26.0,92,99.99,,,-99.99,,2013-01-17 21:34:00,
2013-01-17 17:04:00,62.0,57.0,30.05,West,281,10.0,18.0,83,99.99,,,-99.99,,2013-01-17 22:04:00,
2013-01-17 17:12:00,62.0,57.0,30.05,West,281,10.0,18.0,83,99.99,,,-99.99,,2013-01-17 22:12:00,
2013-01-17 17:23:00,62.0,57.0,30.05,West,281,10.0,18.0,83,99.99,,,-99.99,,2013-01-17 22:23:00,
2013-01-17 17:33:00,61.0,56.0,30.05,West,277,9.0,18.0,84,99.99,,,-99.99,,2013-01-17 22:33:00,
2013-01-17 17:43:00,61.0,56.0,30.05,West,277,9.0,18.0,84,99.99,,,-99.99,,2013-01-17 22:43:00,
2013-01-17 17:53:00,61.0,56.0,30.05,West,277,9.0,18.0,84,99.99,,,-99.99,,2013-01-17 22:53:00,
2013-01-17 18:03:00,61.0,55.0,30.06,WNW,287,11.0,21.0,80,99.99,,,-99.99,,2013-01-17 23:03:00,
2013-01-17 18:12:00,61.0,55.0,30.06,WNW,287,11.0,21.0,80,99.99,,,-99.99,,2013-01-17 23:12:00,
2013-01-17 18:23:00,61.0,54.0,30.07,WNW,285,9.0,18.0,78,99.99,,,-99.99,,2013-01-17 23:23:00,
2013-01-17 18:33:00,61.0,53.0,30.06,West,269,8.0,19.0,76,99.99,,,-99.99,,2013-01-17 23:33:00,
2013-01-17 18:43:00,61.0,53.0,30.06,West,269,8.0,19.0,76,99.99,,,-99.99,,2013-01-17 23:43:00,
2013-01-17 18:53:00,61.0,53.0,30.06,West,277,7.0,15.0,75,99.99,,,-99.99,,2013-01-17 23:53:00,
2013-01-17 19:03:00,61.0,52.0,30.07,WNW,287,8.0,15.0,73,99.99,,,-99.99,,2013-01-18 00:03:00,
2013-01-17 19:12:00,61.0,52.0,30.07,WNW,287,8.0,15.0,73,99.99,,,-99.99,,2013-01-18 00:12:00,
2013-01-17 19:23:00,61.0,52.0,30.08,West,281,5.0,12.0,73,99.99,,,-99.99,,2013-01-18 00:23:00,
2013-01-17 19:33:00,61.0,52.0,30.08,West,281,5.0,12.0,73,99.99,,,-99.99,,2013-01-18 00:33:00,
2013-01-17 19:43:00,61.0,52.0,30.08,WNW,284,7.0,16.0,72,99.99,,,-99.99,,2013-01-18 00:43:00,
2013-01-17 19:52:00,61.0,52.0,30.08,West,276,8.0,18.0,71,99.99,,,-99.99,,2013-01-18 00:52:00,
2013-01-17 20:03:00,60.0,49.0,30.09,WNW,288,9.0,18.0,66,99.99,,,-99.99,,2013-01-18 01:03:00,
2013-01-17 20:12:00,60.0,49.0,30.09,WNW,288,9.0,18.0,66,99.99,,,-99.99,,2013-01-18 01:12:00,
2013-01-17 20:23:00,60.0,49.0,30.09,WNW,293,9.0,22.0,67,99.99,,,-99.99,,2013-01-18 01:23:00,
2013-01-17 20:33:00,59.0,48.0,30.10,West,273,7.0,13.0,68,99.99,,,-99.99,,2013-01-18 01:33:00,
2013-01-17 20:43:00,59.0,48.0,30.10,West,273,7.0,13.0,68,99.99,,,-99.99,,2013-01-18 01:43:00,
2013-01-17 20:53:00,59.0,49.0,30.10,WNW,287,5.0,10.0,70,99.99,,,-99.99,,2013-01-18 01:53:00,
2013-01-17 21:03:00,58.0,49.0,30.10,West,266,5.0,8.0,72,99.99,,,-99.99,,2013-01-18 02:03:00,
2013-01-17 21:12:00,58.0,49.0,30.10,West,266,5.0,8.0,72,99.99,,,-99.99,,2013-01-18 02:12:00,
2013-01-17 21:22:00,58.0,50.0,30.10,WNW,290,5.0,11.0,74,99.99,,,-99.99,,2013-01-18 02:22:00,
2013-01-17 21:33:00,57.0,50.0,30.11,WNW,287,6.0,12.0,76,99.99,,,-99.99,,2013-01-18 02:33:00,
2013-01-17 21:43:00,57.0,50.0,30.11,WNW,287,6.0,12.0,76,99.99,,,-99.99,,2013-01-18 02:43:00,
2013-01-17 21:53:00,57.0,49.0,30.11,WNW,290,8.0,18.0,75,99.99,,,-99.99,,2013-01-18 02:53:00,
2013-01-17 22:02:00,58.0,50.0,30.11,WNW,285,8.0,19.0,74,99.99,,,-99.99,,2013-01-18 03:02:00,
2013-01-17 22:12:00,58.0,50.0,30.11,WNW,285,8.0,19.0,74,99.99,,,-99.99,,2013-01-18 03:12:00,
2013-01-17 22:23:00,58.0,49.0,30.11,West,280,9.0,21.0,73,99.99,,,-99.99,,2013-01-18 03:23:00,
2013-01-17 22:33:00,58.0,49.0,30.10,WNW,285,10.0,22.0,71,99.99,,,-99.99,,2013-01-18 03:33:00,
2013-01-17 22:42:00,58.0,49.0,30.10,WNW,285,10.0,22.0,71,99.99,,,-99.99,,2013-01-18 03:42:00,
2013-01-17 22:52:00,58.0,49.0,30.10,WNW,285,10.0,22.0,71,99.99,,,-99.99,,2013-01-18 03:52:00,
2013-01-17 23:02:00,58.0,49.0,30.11,WNW,287,9.0,19.0,73,99.99,,,-99.99,,2013-01-18 04:02:00,
2013-01-17 23:12:00,58.0,49.0,30.11,WNW,287,9.0,19.0,73,99.99,,,-99.99,,2013-01-18 04:12:00,
2013-01-17 23:22:00,58.0,49.0,30.11,West,280,8.0,21.0,72,99.99,,,-99.99,,2013-01-18 04:22:00,
2013-01-17 23:33:00,57.0,48.0,30.11,WNW,284,9.0,16.0,72,99.99,,,-99.99,,2013-01-18 04:33:00,
2013-01-17 23:42:00,57.0,48.0,30.11,WNW,284,9.0,16.0,72,99.99,,,-99.99,,2013-01-18 04:42:00,
2013-01-17 23:53:00,57.0,48.0,30.11,West,278,9.0,21.0,72,99.99,,,-99.99,,2013-01-18 04:53:00,